createdAt,value
2022-11-22T00:00:39.316Z,1.83
2022-11-22T00:03:07.028Z,2.00
2022-11-22T00:05:34.616Z,2.35
2022-11-22T00:08:02.153Z,1.65
2022-11-22T00:10:29.536Z,1.75
2022-11-22T00:12:57.145Z,1.80
2022-11-22T00:15:24.751Z,2.13
2022-11-22T00:17:52.353Z,1.98
2022-11-22T00:20:19.983Z,2.30
2022-11-22T00:22:47.715Z,2.08
2022-11-22T00:25:15.835Z,1.80
2022-11-22T00:27:43.215Z,2.17
2022-11-22T00:30:11.234Z,2.17
2022-11-22T00:32:38.665Z,2.08
2022-11-22T00:35:06.574Z,2.10
2022-11-22T00:37:34.214Z,2.42
2022-11-22T00:40:02.770Z,1.90
2022-11-22T00:42:30.523Z,2.22
2022-11-22T00:44:58.137Z,3.95
2022-11-22T00:47:26.563Z,2.67
2022-11-22T00:49:53.961Z,2.60
2022-11-22T00:52:21.338Z,2.42
2022-11-22T00:54:54.323Z,2.15
2022-11-22T00:57:22.468Z,2.45
2022-11-22T00:59:49.953Z,2.20
2022-11-22T01:02:17.343Z,2.75
2022-11-22T01:04:44.804Z,2.33
2022-11-22T01:07:12.402Z,2.65
2022-11-22T01:09:39.776Z,2.67
2022-11-22T01:12:07.433Z,2.55
2022-11-22T01:14:35.013Z,3.20
2022-11-22T01:17:02.523Z,2.60
2022-11-22T01:19:30.320Z,2.80
2022-11-22T01:21:58.792Z,2.97
2022-11-22T01:24:26.303Z,2.78
2022-11-22T01:26:53.982Z,2.28
2022-11-22T01:29:21.326Z,2.58
2022-11-22T01:31:48.823Z,2.92
2022-11-22T01:34:16.333Z,2.65
2022-11-22T01:36:43.917Z,3.13
2022-11-22T01:39:11.444Z,2.45
2022-11-22T01:41:39.153Z,2.72
2022-11-22T01:44:23.334Z,3.05
2022-11-22T01:46:53.049Z,2.72
2022-11-22T01:49:25.028Z,2.90
2022-11-22T01:51:53.444Z,2.72
2022-11-22T01:54:22.337Z,2.35
2022-11-22T01:56:54.321Z,2.58
2022-11-22T01:59:23.911Z,2.78
2022-11-22T02:01:52.058Z,2.50
2022-11-22T02:04:20.576Z,2.92
2022-11-22T02:06:53.063Z,3.33
2022-11-22T02:09:21.476Z,2.45
2022-11-22T02:11:53.183Z,3.17
2022-11-22T02:14:23.256Z,2.40
2022-11-22T02:16:50.654Z,2.85
2022-11-22T02:19:28.094Z,2.88
2022-11-22T02:21:59.455Z,2.88
2022-11-22T02:24:28.924Z,2.95
2022-11-22T02:26:56.559Z,2.95
2022-11-22T02:29:24.231Z,2.90
2022-11-22T02:31:51.746Z,2.97
2022-11-22T02:34:19.201Z,2.85
2022-11-22T02:36:49.896Z,3.15
2022-11-22T02:39:19.279Z,2.95
2022-11-22T02:41:47.236Z,3.38
2022-11-22T02:44:14.857Z,3.38
2022-11-22T02:46:53.161Z,3.40
2022-11-22T02:49:22.213Z,3.40
2022-11-22T02:51:51.005Z,3.35
2022-11-22T02:54:18.734Z,3.40
2022-11-22T02:56:46.326Z,3.40
2022-11-22T02:59:13.715Z,3.20
2022-11-22T03:01:41.802Z,2.92
2022-11-22T03:04:09.361Z,2.90
2022-11-22T03:06:37.008Z,2.92
2022-11-22T03:09:04.786Z,3.33
2022-11-22T03:11:32.447Z,3.30
2022-11-22T03:14:00.133Z,3.60
2022-11-22T03:16:27.616Z,3.53
2022-11-22T03:18:55.426Z,3.08
2022-11-22T03:21:22.772Z,3.30
2022-11-22T03:23:50.425Z,3.38
2022-11-22T03:26:17.975Z,3.28
2022-11-22T03:28:45.644Z,3.90
2022-11-22T03:31:13.484Z,3.65
2022-11-22T03:33:41.248Z,3.55
2022-11-22T03:36:08.667Z,3.90
2022-11-22T03:38:36.761Z,3.78
2022-11-22T03:41:04.058Z,3.42
2022-11-22T03:43:31.794Z,3.05
2022-11-22T03:45:59.343Z,3.33
2022-11-22T03:48:27.153Z,3.30
2022-11-22T03:50:54.684Z,3.75
2022-11-22T03:53:23.492Z,3.50
2022-11-22T03:55:51.343Z,3.22
2022-11-22T03:58:18.876Z,3.40
2022-11-22T04:00:46.325Z,3.53
2022-11-22T04:03:13.952Z,3.72
2022-11-22T04:05:41.379Z,3.28
2022-11-22T04:08:08.917Z,3.40
2022-11-22T04:10:36.663Z,3.10
2022-11-22T04:13:04.444Z,3.60
2022-11-22T04:15:31.922Z,3.25
2022-11-22T04:17:59.624Z,3.70
2022-11-22T04:20:46.792Z,3.78
2022-11-22T04:23:21.243Z,3.45
2022-11-22T04:25:50.009Z,4.07
2022-11-22T04:28:18.607Z,3.08
2022-11-22T04:31:04.676Z,3.65
2022-11-22T04:33:32.465Z,3.15
2022-11-22T04:36:00.457Z,3.67
2022-11-22T04:38:28.296Z,3.67
2022-11-22T04:40:55.802Z,4.18
2022-11-22T04:43:43.640Z,3.45
2022-11-22T04:46:11.637Z,3.85
2022-11-22T04:48:39.713Z,3.97
2022-11-22T04:51:26.804Z,3.40
2022-11-22T04:53:54.615Z,3.63
2022-11-22T04:56:22.040Z,3.67
2022-11-22T04:58:51.843Z,3.80
2022-11-22T05:01:19.379Z,4.07
2022-11-22T05:03:46.864Z,4.40
2022-11-22T05:06:15.098Z,4.15
2022-11-22T05:08:42.889Z,4.13
2022-11-22T05:11:10.363Z,4.10
2022-11-22T05:13:39.356Z,3.90
2022-11-22T05:16:08.546Z,3.90
2022-11-22T05:18:36.304Z,3.80
2022-11-22T05:21:07.689Z,4.03
2022-11-22T05:23:53.902Z,3.55
2022-11-22T05:26:25.463Z,3.88
2022-11-22T05:28:53.287Z,4.40
2022-11-22T05:31:25.066Z,4.07
2022-11-22T05:33:53.994Z,3.63
2022-11-22T05:36:22.415Z,3.72
2022-11-22T05:38:50.104Z,4.72
2022-11-22T05:41:17.878Z,4.97
2022-11-22T05:43:45.597Z,4.35
2022-11-22T05:46:16.213Z,4.43
2022-11-22T05:48:47.447Z,3.75
2022-11-22T05:51:15.865Z,4.40
2022-11-22T05:53:44.849Z,4.30
2022-11-22T05:56:14.054Z,4.75
2022-11-22T05:58:41.798Z,4.55
2022-11-22T06:01:12.517Z,4.40
2022-11-22T06:03:40.403Z,4.60
2022-11-22T06:06:08.248Z,5.25
2022-11-22T06:08:36.925Z,4.85
2022-11-22T06:11:08.476Z,5.70
2022-11-22T06:13:40.065Z,5.70
2022-11-22T06:16:08.435Z,5.72
2022-11-22T06:18:36.187Z,5.72
2022-11-22T06:21:05.165Z,5.53
2022-11-22T06:23:32.673Z,5.60
2022-11-22T06:26:00.714Z,6.20
2022-11-22T06:28:29.679Z,5.68
2022-11-22T06:31:03.316Z,5.30
2022-11-22T06:33:31.034Z,5.00
2022-11-22T06:36:09.425Z,5.45
2022-11-22T06:38:37.302Z,5.15
2022-11-22T06:41:06.226Z,4.57
2022-11-22T06:43:34.459Z,4.28
2022-11-22T06:46:03.389Z,4.13
2022-11-22T06:48:31.388Z,3.70
2022-11-22T06:51:06.478Z,3.92
2022-11-22T06:53:50.470Z,4.20
2022-11-22T06:56:22.653Z,4.03
2022-11-22T06:58:52.125Z,3.97
2022-11-22T07:01:21.381Z,4.32
2022-11-22T07:03:49.630Z,3.95
2022-11-22T07:06:18.397Z,4.00
2022-11-22T07:08:46.730Z,3.65
2022-11-22T07:11:19.449Z,4.07
2022-11-22T07:13:47.953Z,4.63
2022-11-22T07:16:17.215Z,4.70
2022-11-22T07:18:44.800Z,4.43
2022-11-22T07:21:13.978Z,4.53
2022-11-22T07:23:42.754Z,4.53
2022-11-22T07:26:10.874Z,3.92
2022-11-22T07:28:38.421Z,4.15
2022-11-22T07:31:07.780Z,4.00
2022-11-22T07:33:35.996Z,3.55
2022-11-22T07:36:07.514Z,3.97
2022-11-22T07:38:35.854Z,4.30
2022-11-22T07:41:03.560Z,4.32
2022-11-22T07:43:31.494Z,4.45
2022-11-22T07:46:06.774Z,4.90
2022-11-22T07:48:34.797Z,7.05
2022-11-22T07:51:06.376Z,10.13
2022-11-22T07:53:35.105Z,10.38
2022-11-22T07:56:06.238Z,8.85
2022-11-22T07:58:34.913Z,8.40
2022-11-22T08:01:06.816Z,8.05
2022-11-22T08:03:34.638Z,7.82
2022-11-22T08:06:03.194Z,8.25
2022-11-22T08:08:31.227Z,7.25
2022-11-22T08:10:58.722Z,10.45
2022-11-22T08:13:26.469Z,8.32
2022-11-22T08:15:54.812Z,8.93
2022-11-22T08:18:23.817Z,7.43
2022-11-22T08:20:51.166Z,8.70
2022-11-22T08:23:19.108Z,8.30
2022-11-22T08:25:46.954Z,8.32
2022-11-22T08:28:14.496Z,8.07
2022-11-22T08:30:41.886Z,7.70
2022-11-22T08:33:09.333Z,6.95
2022-11-22T08:35:36.793Z,7.85
2022-11-22T08:38:04.486Z,7.65
2022-11-22T08:40:33.622Z,6.50
2022-11-22T08:43:04.133Z,6.93
2022-11-22T08:45:31.643Z,7.25
2022-11-22T08:47:59.293Z,6.68
2022-11-22T08:50:26.860Z,6.43
2022-11-22T08:52:55.054Z,6.25
2022-11-22T08:55:22.506Z,7.55
2022-11-22T08:57:50.237Z,6.63
2022-11-22T09:00:18.146Z,6.85
2022-11-22T09:02:46.028Z,7.13
2022-11-22T09:05:13.589Z,7.82
2022-11-22T09:10:29.126Z,7.25
2022-11-22T09:12:56.886Z,7.07
2022-11-22T09:15:25.506Z,8.10
2022-11-22T09:17:53.298Z,6.78
2022-11-22T09:20:20.803Z,7.50
2022-11-22T09:22:48.271Z,7.38
2022-11-22T09:25:15.976Z,6.70
2022-11-22T09:27:43.478Z,6.00
2022-11-22T09:30:12.637Z,6.18
2022-11-22T09:32:40.453Z,5.88
2022-11-22T09:35:07.974Z,6.30
2022-11-22T09:37:35.442Z,6.72
2022-11-22T09:40:03.733Z,5.78
2022-11-22T09:42:50.243Z,6.72
2022-11-22T09:45:38.136Z,7.60
2022-11-22T09:48:22.203Z,11.18
2022-11-22T09:50:54.486Z,13.10
2022-11-22T09:53:27.903Z,7.55
2022-11-22T09:55:59.767Z,5.68
2022-11-22T09:58:32.313Z,5.50
2022-11-22T10:01:09.995Z,5.18
2022-11-22T10:03:48.066Z,5.28
2022-11-22T10:06:38.993Z,4.90
2022-11-22T10:09:14.493Z,5.85
2022-11-22T10:11:42.283Z,5.45
2022-11-22T10:14:28.335Z,4.78
2022-11-22T10:17:02.236Z,4.63
2022-11-22T10:19:30.332Z,4.97
2022-11-22T10:21:58.054Z,4.47
2022-11-22T10:24:25.587Z,4.78
2022-11-22T10:26:54.947Z,4.22
2022-11-22T10:29:25.383Z,4.32
2022-11-22T10:32:10.803Z,4.47
2022-11-22T10:34:56.969Z,4.95
2022-11-22T10:37:57.043Z,4.70
2022-11-22T10:40:39.190Z,4.90
2022-11-22T10:43:15.977Z,4.97
2022-11-22T10:45:50.913Z,4.85
2022-11-22T10:48:24.606Z,4.78
2022-11-22T10:51:01.305Z,5.03
2022-11-22T10:53:37.836Z,4.47
2022-11-22T10:56:24.366Z,4.43
2022-11-22T10:58:55.075Z,4.85
2022-11-22T11:01:28.597Z,5.32
2022-11-22T11:03:59.453Z,4.55
2022-11-22T11:07:04.251Z,4.22
2022-11-22T11:12:30.765Z,5.60
2022-11-22T11:15:00.976Z,8.20
2022-11-22T11:17:30.633Z,6.57
2022-11-22T11:20:01.096Z,8.57
2022-11-22T11:23:06.472Z,5.03
2022-11-22T11:25:30.137Z,4.32
2022-11-22T11:27:59.793Z,5.15
2022-11-22T11:30:27.377Z,5.13
2022-11-22T11:32:56.046Z,4.85
2022-11-22T11:35:25.354Z,6.82
2022-11-22T11:37:52.954Z,5.00
2022-11-22T11:40:30.884Z,4.90
2022-11-22T11:43:16.933Z,6.53
2022-11-22T11:45:44.964Z,4.43
2022-11-22T11:48:37.934Z,4.15
2022-11-22T11:51:09.546Z,3.55
2022-11-22T11:53:37.264Z,3.50
2022-11-22T11:56:40.353Z,4.15
2022-11-22T11:59:20.219Z,3.38
2022-11-22T12:01:50.629Z,3.30
2022-11-22T12:04:23.215Z,3.63
2022-11-22T12:06:58.725Z,4.75
2022-11-22T12:09:30.684Z,3.10
2022-11-22T12:12:00.175Z,3.45
2022-11-22T12:14:42.972Z,3.20
2022-11-22T12:17:22.183Z,3.60
2022-11-22T12:20:09.917Z,2.78
2022-11-22T12:23:07.078Z,3.05
2022-11-22T12:25:36.988Z,2.80
2022-11-22T12:28:13.025Z,2.55
2022-11-22T12:30:42.375Z,3.10
2022-11-22T12:33:13.528Z,2.90
2022-11-22T12:35:44.041Z,2.45
2022-11-22T12:38:26.458Z,2.38
2022-11-22T12:40:55.564Z,2.65
2022-11-22T12:43:26.357Z,2.85
2022-11-22T12:45:58.987Z,2.90
2022-11-22T12:48:30.269Z,4.55
2022-11-22T12:51:01.624Z,2.70
2022-11-22T12:53:31.417Z,2.63
2022-11-22T12:56:11.136Z,1.80
2022-11-22T12:58:42.107Z,2.15
2022-11-22T13:01:18.555Z,2.40
2022-11-22T13:04:06.775Z,2.35
2022-11-22T13:06:38.307Z,2.40
2022-11-22T13:09:12.951Z,2.90
2022-11-22T13:11:44.015Z,1.80
2022-11-22T13:14:19.359Z,2.40
2022-11-22T13:16:48.653Z,2.55
2022-11-22T13:19:17.597Z,2.67
2022-11-22T13:21:54.027Z,2.58
2022-11-22T13:24:31.319Z,2.17
2022-11-22T13:27:08.205Z,1.70
2022-11-22T13:29:37.539Z,2.38
2022-11-22T13:32:14.007Z,2.13
2022-11-22T13:34:42.663Z,3.40
2022-11-22T13:37:15.727Z,5.20
2022-11-22T13:39:45.814Z,2.00
2022-11-22T13:42:16.198Z,2.65
2022-11-22T13:44:58.737Z,2.55
2022-11-22T13:47:35.567Z,3.22
2022-11-22T13:50:03.193Z,2.85
2022-11-22T13:52:50.904Z,2.95
2022-11-22T13:55:29.952Z,3.25
2022-11-22T13:57:57.763Z,2.65
2022-11-22T14:00:25.224Z,2.38
2022-11-22T14:02:54.214Z,2.63
2022-11-22T14:05:27.697Z,2.15
2022-11-22T14:07:56.866Z,2.60
2022-11-22T14:10:35.918Z,2.45
2022-11-22T14:13:06.174Z,2.42
2022-11-22T14:15:55.724Z,4.85
2022-11-22T14:18:33.034Z,6.07
2022-11-22T14:21:09.574Z,5.75
2022-11-22T14:23:57.263Z,5.60
2022-11-22T14:26:31.567Z,4.57
2022-11-22T14:31:34.555Z,4.97
2022-11-22T14:34:20.926Z,4.93
2022-11-22T14:37:07.298Z,4.20
2022-11-22T14:39:44.166Z,4.85
2022-11-22T14:42:30.492Z,5.72
2022-11-22T14:44:58.215Z,6.63
2022-11-22T14:47:25.821Z,5.97
2022-11-22T14:49:54.404Z,5.78
2022-11-22T14:52:23.757Z,5.25
2022-11-22T14:54:55.644Z,5.45
2022-11-22T14:57:24.557Z,3.95
2022-11-22T15:00:03.769Z,3.67
2022-11-22T15:02:50.165Z,3.95
2022-11-22T15:09:20.792Z,4.07
2022-11-22T15:09:23.394Z,3.70
2022-11-22T15:11:27.591Z,3.17
2022-11-22T15:14:06.677Z,3.30
2022-11-22T15:59:42.433Z,4.43
2022-11-22T16:02:19.245Z,3.55
2022-11-22T16:06:07.592Z,3.40
2022-11-22T16:07:48.761Z,3.28
2022-11-22T16:10:23.964Z,3.45
2022-11-22T16:12:52.673Z,2.72
2022-11-22T16:15:20.112Z,4.72
2022-11-22T16:17:56.455Z,6.45
2022-11-22T16:20:29.476Z,4.82
2022-11-22T16:23:12.297Z,3.30
2022-11-22T16:25:41.777Z,2.80
2022-11-22T16:28:23.933Z,3.05
2022-11-22T16:30:51.432Z,3.13
2022-11-22T16:33:19.167Z,2.70
2022-11-22T16:35:46.924Z,2.92
2022-11-22T16:38:14.514Z,2.70
2022-11-22T16:40:43.426Z,2.50
2022-11-22T16:43:18.536Z,2.75
2022-11-22T16:45:46.132Z,2.80
2022-11-22T16:48:31.195Z,2.72
2022-11-22T16:51:00.754Z,2.30
2022-11-22T16:53:29.654Z,2.45
2022-11-22T16:55:57.236Z,3.67
2022-11-22T16:58:25.170Z,2.08
2022-11-22T17:00:54.179Z,2.45
2022-11-22T17:03:24.382Z,3.17
2022-11-22T17:05:51.923Z,2.67
2022-11-22T17:08:21.439Z,3.25
2022-11-22T17:10:50.736Z,2.50
2022-11-22T17:13:19.990Z,2.20
2022-11-22T17:15:47.854Z,2.40
2022-11-22T17:18:15.948Z,2.30
2022-11-22T17:20:43.678Z,2.70
2022-11-22T17:23:14.551Z,2.90
2022-11-22T17:25:42.183Z,2.53
2022-11-22T17:28:09.791Z,2.60
2022-11-22T17:30:37.412Z,2.60
2022-11-22T17:33:05.222Z,2.90
2022-11-22T17:35:37.314Z,2.50
2022-11-22T17:38:13.952Z,3.15
2022-11-22T17:40:47.494Z,2.53
2022-11-22T17:43:23.986Z,2.25
2022-11-22T17:45:51.633Z,2.78
2022-11-22T17:48:19.606Z,2.40
2022-11-22T17:50:47.399Z,3.03
2022-11-22T17:53:14.986Z,2.58
2022-11-22T17:56:09.029Z,2.10
2022-11-22T17:58:31.516Z,2.47
2022-11-22T18:01:19.551Z,2.35
2022-11-22T18:03:48.089Z,2.50
2022-11-22T18:06:16.666Z,2.70
2022-11-22T18:08:47.289Z,2.42
2022-11-22T18:11:15.944Z,2.35
2022-11-22T18:13:43.382Z,3.13
2022-11-22T18:16:16.064Z,2.33
2022-11-22T18:18:59.543Z,2.50
2022-11-22T18:21:29.765Z,2.30
2022-11-22T18:23:58.880Z,2.15
2022-11-22T18:26:42.310Z,2.28
2022-11-22T18:29:41.290Z,3.07
2022-11-22T18:31:58.293Z,2.63
2022-11-22T18:34:25.867Z,2.67
2022-11-22T18:36:55.709Z,2.53
2022-11-22T18:39:26.893Z,2.40
2022-11-22T18:41:54.373Z,4.10
2022-11-22T18:44:21.875Z,6.20
2022-11-22T18:46:49.323Z,5.53
2022-11-22T18:49:16.813Z,7.35
2022-11-22T18:51:44.541Z,7.10
2022-11-22T18:54:12.264Z,7.88
2022-11-22T18:56:41.021Z,9.23
2022-11-22T18:59:09.808Z,10.10
2022-11-22T19:01:37.391Z,11.02
2022-11-22T19:04:05.596Z,10.48
2022-11-22T19:06:33.186Z,9.60
2022-11-22T19:09:01.994Z,8.70
2022-11-22T19:11:32.891Z,9.50
2022-11-22T19:14:00.465Z,7.90
2022-11-22T19:16:30.029Z,9.68
2022-11-22T19:18:57.696Z,7.10
2022-11-22T19:21:27.056Z,7.03
2022-11-22T19:23:55.334Z,6.55
2022-11-22T19:26:24.574Z,6.15
2022-11-22T19:28:56.107Z,8.52
2022-11-22T19:31:25.641Z,9.75
2022-11-22T19:33:54.517Z,7.85
2022-11-22T19:36:30.532Z,4.30
2022-11-22T19:38:59.955Z,4.05
2022-11-22T19:41:27.644Z,3.25
2022-11-22T19:43:56.662Z,2.47
2022-11-22T19:46:24.883Z,4.00
2022-11-22T19:48:53.212Z,4.50
2022-11-22T19:51:21.437Z,3.55
2022-11-22T19:53:49.284Z,5.78
2022-11-22T19:56:18.260Z,5.60
2022-11-22T19:58:50.442Z,9.95
2022-11-22T20:01:18.389Z,12.32
2022-11-22T20:03:46.462Z,13.07
2022-11-22T20:06:14.864Z,14.20
2022-11-22T20:08:42.851Z,15.50
2022-11-22T20:11:11.603Z,14.32
2022-11-22T20:13:40.455Z,14.13
2022-11-22T20:16:08.125Z,13.30
2022-11-22T20:18:35.647Z,13.77
2022-11-22T20:21:03.905Z,12.82
2022-11-22T20:23:31.847Z,12.98
2022-11-22T20:26:06.649Z,12.75
2022-11-22T20:28:34.192Z,13.30
2022-11-22T20:31:06.009Z,12.23
2022-11-22T20:33:37.494Z,10.18
2022-11-22T20:36:10.184Z,7.10
2022-11-22T20:38:38.587Z,5.93
2022-11-22T20:41:06.738Z,4.55
2022-11-22T20:43:35.207Z,4.55
2022-11-22T20:46:03.785Z,4.20
2022-11-22T20:48:32.033Z,3.47
2022-11-22T20:51:00.182Z,4.30
2022-11-22T20:53:28.176Z,9.88
2022-11-22T20:55:56.136Z,9.75
2022-11-22T20:58:27.788Z,14.98
2022-11-22T21:00:56.136Z,9.18
2022-11-22T21:03:24.305Z,11.20
2022-11-22T21:05:52.614Z,9.02
2022-11-22T21:08:20.644Z,7.60
2022-11-22T21:10:48.137Z,5.63
2022-11-22T21:13:15.951Z,4.90
2022-11-22T21:15:44.475Z,4.13
2022-11-22T21:18:27.861Z,4.90
2022-11-22T21:20:55.396Z,4.10
2022-11-22T21:23:22.984Z,3.83
2022-11-22T21:25:50.751Z,3.75
2022-11-22T21:28:18.380Z,3.63
2022-11-22T21:30:46.584Z,3.05
2022-11-22T21:33:14.187Z,3.70
2022-11-22T21:35:45.583Z,5.60
2022-11-22T21:38:16.744Z,7.50
2022-11-22T21:40:50.584Z,8.23
2022-11-22T21:43:18.284Z,8.20
2022-11-22T21:45:45.878Z,6.63
2022-11-22T21:48:13.625Z,8.95
2022-11-22T21:50:41.143Z,9.52
2022-11-22T21:53:09.206Z,9.65
2022-11-22T21:55:36.937Z,8.70
2022-11-22T21:58:04.706Z,7.78
2022-11-22T22:00:32.064Z,8.27
2022-11-22T22:02:59.535Z,9.98
2022-11-22T22:05:27.467Z,10.73
2022-11-22T22:07:55.071Z,9.93
2022-11-22T22:10:22.714Z,8.25
2022-11-22T22:12:53.604Z,7.72
2022-11-22T22:15:22.205Z,7.32
2022-11-22T22:17:49.717Z,7.65
2022-11-22T22:20:17.235Z,8.25
2022-11-22T22:22:44.764Z,7.45
2022-11-22T22:25:12.307Z,7.55
2022-11-22T22:27:40.137Z,7.05
2022-11-22T22:30:09.345Z,7.22
2022-11-22T22:32:37.282Z,7.88
2022-11-22T22:35:05.999Z,6.57
2022-11-22T22:37:35.525Z,7.53
2022-11-22T22:40:03.264Z,7.93
2022-11-22T22:42:30.753Z,8.35
2022-11-22T22:44:58.236Z,7.07
2022-11-22T22:47:25.807Z,6.75
2022-11-22T22:49:53.335Z,6.70
2022-11-22T22:52:21.084Z,6.60
2022-11-22T22:54:48.594Z,6.57
2022-11-22T22:57:16.017Z,6.32
2022-11-22T22:59:43.686Z,6.43
2022-11-22T23:02:11.237Z,6.40
2022-11-22T23:04:40.947Z,6.40
2022-11-22T23:07:08.890Z,7.25
2022-11-22T23:09:37.174Z,6.75
2022-11-22T23:12:13.593Z,7.05
2022-11-22T23:14:41.653Z,6.45
2022-11-22T23:17:10.401Z,7.05
2022-11-22T23:19:37.933Z,6.88
2022-11-22T23:22:05.856Z,6.65
2022-11-22T23:24:34.046Z,6.75
2022-11-22T23:27:02.057Z,6.43
2022-11-22T23:29:29.768Z,6.80
2022-11-22T23:31:57.574Z,6.70
2022-11-22T23:34:24.983Z,7.53
2022-11-22T23:36:52.553Z,6.78
2022-11-22T23:39:20.214Z,7.30
2022-11-22T23:41:48.104Z,6.32
2022-11-22T23:44:15.675Z,6.68
2022-11-22T23:46:43.476Z,6.72
2022-11-22T23:49:12.015Z,5.97
2022-11-22T23:51:39.845Z,5.97
2022-11-22T23:54:07.604Z,6.65
2022-11-22T23:56:36.706Z,6.03
2022-11-22T23:59:07.923Z,6.47
